Lancaster, MO (63548)

2:31 AM CDT on September 25, 2016 (GMT -0500)
APRSWXNET | | Change Station

Elev 931 ft 40.52 °N, 92.52 °W | Updated 32 minutes ago

Scattered Clouds
Scattered Clouds
73 °F
Feels Like 72 °F
N
0
Wind Variable Wind from South
Gusts 0.0 mph

Today
High -- | Low -- °F
--% Chance of Precip.
Yesterday
High -- | Low -- °F
Precip. -- in
Pressure 30.01 in
Visibility 10.0 miles
Clouds Scattered Clouds 8500 ft
Heat Index 72 °F
Dew Point 69 °F
Humidity 86%
Rainfall in
Snow Depth Not available.
7:01 AM 7:01 PM
Waning Crescent, 30% visible
METAR KIRK 250655Z AUTO 16006KT 10SM SCT085 22/19 A3002 RMK AO2 SLP161 T02170194 $
Pressure 30.01 in
Visibility 10.0 miles
Clouds Scattered Clouds 8500 ft
Heat Index 72 °F
Dew Point 69 °F
Humidity 86%
Rainfall in
Snow Depth Not available.
7:01 AM 7:01 PM
Waning Crescent, 30% visible
METAR KIRK 250655Z AUTO 16006KT 10SM SCT085 22/19 A3002 RMK AO2 SLP161 T02170194 $

10-Day Weather Forecast

Almanac

Astronomy

Sep. 25, 2016 Rise Set
Actual Time
Civil Twilight
Nautical Twilight
Astronomical Twilight
Moon
Length of Visible Light
Length of Day
Tomorrow will be .
, % of the Moon is Illuminated

Today's Extremes

State Highs State Lows

Community

WunderPhotos

Upload Photos

1,941,554 photos uploaded!

WunderBlog® & News

Nearby

Air Quality

  Air Quality AQ Index Pollutant
Not available.

Snow Depth

Station Depth Elevation

Earthquake Activity

City Distance Mag. Time & Date
Minimum magnitude displayed is 2.5.

Coastal Water Temperatures

Place Temperature

Stations

Nearby Weather Stations

Station Location Temp. Windchill Dew Point Humidity Wind Precip. Elev Updated Type
                   

Watches & Warnings

There are currently no watches in effect.